• Join FlightAware (Why Join?)
  • Login
  • US Flag 
12:16PM EST


 

Airport Tracker/Info


-or-


 

Live Flight TrackerFlight Track Log ✈ N379PK ✈ 09-Jan-2014 ✈ KBOI - KLWS

Flight Track Log - Related Links

Times and Time Zones

All times are in EST time to prevent confusion due to time zone crossing. See the N379PK flight status page for this flight to view local times or setup timezone preferences in your user account.

Time Position Orientation Groundspeed Altitude Reporting Facility
EST Latitude Longitude Course Direction KTS MPH feet Rate Location/Type
08:44PM 43.5586 -116.2089 114° Southeast 153 176 3,500  Level Salt Lake Center
08:45PM 43.5422 -116.1589 114° Southeast 179 206 5,300 2,038 Climbing Salt Lake Center
08:45PM 43.5394 -116.1561 144° Southeast 173 199 5,300 2,123 Level Salt Lake Center
08:46PM 43.5211 -116.0872 110° East 183 211 7,600 2,195 Climbing Salt Lake Center
08:47PM 43.5542 -116.0639 27° Northeast 170 196 9,800 2,177 Climbing Salt Lake Center
08:48PM 43.6014 -116.0783 348° North 167 192 12,100 2,341 Climbing Salt Lake Center
08:49PM 43.6419 -116.0908 347° North 146 168 14,600 2,049 Climbing Salt Lake Center
08:50PM 43.6742 -116.1017 346° North 124 143 16,300 1,317 Climbing Salt Lake Center
08:51PM 43.7131 -116.1136 347° North 140 161 17,300 1,073 Climbing Salt Lake Center
08:52PM 43.7550 -116.1267 347° North 153 176 18,500 1,258 Climbing Salt Lake Center
08:53PM 43.7908 -116.1389 346° North 134 154 19,900 732 Climbing Salt Lake Center
08:54PM 43.8300 -116.1519 346° North 149 171 20,000 49 Climbing Salt Lake Center
08:55PM 43.8878 -116.1703 347° North 176 203 20,000  Level Salt Lake Center
08:57PM 43.9367 -116.1867 346° North 182 209 20,000  Level Salt Lake Center
08:58PM 43.9864 -116.2031 347° North 184 212 20,000  Level Salt Lake Center
08:59PM 44.0358 -116.2186 347° North 182 209 20,000  Level Salt Lake Center
09:00PM 44.0864 -116.2353 347° North 187 215 20,000  Level Salt Lake Center
09:01PM 44.1367 -116.2522 346° North 186 214 20,000  Level Salt Lake Center
09:02PM 44.1881 -116.2686 347° North 188 216 20,000  Level Salt Lake Center
09:03PM 44.2392 -116.2847 347° North 188 216 20,000  Level Salt Lake Center
09:04PM 44.2906 -116.3022 346° North 189 217 20,000  Level Salt Lake Center
09:05PM 44.3517 -116.3222 347° North 188 216 20,000  Level Salt Lake Center
09:06PM 44.4019 -116.3394 346° North 186 214 20,000  Level Salt Lake Center
09:07PM 44.4525 -116.3550 348° North 185 213 20,000  Level Salt Lake Center
09:08PM 44.5031 -116.3719 347° North 185 213 20,000  Level Salt Lake Center
09:09PM 44.5536 -116.3892 346° North 186 214 20,000  Level Salt Lake Center
09:10PM 44.6047 -116.4067 346° North 188 216 20,000  Level Salt Lake Center
09:11PM 44.6544 -116.4228 347° North 185 213 20,000  Level Salt Lake Center
09:12PM 44.7047 -116.4400 346° North 185 213 20,000  Level Salt Lake Center
09:13PM 44.7561 -116.4569 347° North 188 216 20,000  Level Salt Lake Center
09:14PM 44.8067 -116.4739 347° North 187 215 20,000  Level Salt Lake Center
09:15PM 44.8672 -116.4953 346° North 188 216 20,000  Level Salt Lake Center
09:16PM 44.9183 -116.5122 347° North 189 217 20,000  Level Salt Lake Center
09:17PM 44.9689 -116.5289 347° North 188 216 20,000  Level Salt Lake Center
09:18PM 45.0200 -116.5464 346° North 188 216 20,000  Level Salt Lake Center
09:19PM 45.0692 -116.5642 346° North 184 212 20,000  Level Salt Lake Center
09:20PM 45.1194 -116.5806 347° North 186 214 20,000  Level Salt Lake Center
09:21PM 45.1492 -116.5914 346° North 185 213 20,000  Level Seattle Center
09:22PM 45.1994 -116.6086 346° North 185 213 20,000  Level Seattle Center
09:23PM 45.2497 -116.6242 348° North 187 215 20,000  Level Seattle Center
09:24PM 45.2997 -116.6433 345° North 186 214 20,000  Level Seattle Center
09:25PM 45.3511 -116.6589 348° North 191 220 20,000  Level Seattle Center
09:25PM 45.3828 -116.6711 345° North 194 223 20,000 -64 Level Salt Lake Center
09:26PM 45.4339 -116.6872 348° North 190 219 19,900  Descending Salt Lake Center
09:27PM 45.4925 -116.6747 North 209 241 20,000 49 Climbing Salt Lake Center
09:28PM 45.5511 -116.6647 North 212 244 20,000  Level Salt Lake Center
09:29PM 45.6092 -116.6506 10° North 212 244 20,000  Level Salt Lake Center
09:30PM 45.6653 -116.6414 North 207 238 20,000  Level Salt Lake Center
09:31PM 45.7231 -116.6297 North 208 239 20,000 -683 Level Salt Lake Center
09:32PM 45.7956 -116.6156 North 218 251 18,600 -1,268 Descending Salt Lake Center
09:33PM 45.8614 -116.6006 North 232 267 17,400 -1,220 Descending Salt Lake Center
09:34PM 45.9264 -116.5872 North 236 272 16,100 -1,415 Descending Salt Lake Center
09:35PM 45.9919 -116.5753 North 238 274 14,500 -1,562 Descending Salt Lake Center
09:37PM 46.0806 -116.5572 North 240 276 12,300 -1,726 Descending Seattle Center
09:38PM 46.1497 -116.5450 North 248 285 10,300 -1,672 Descending Seattle Center
09:39PM 46.2186 -116.5314 North 251 289 8,900 -1,587 Descending Seattle Center
09:40PM 46.2739 -116.5794 329° Northwest 239 275 7,100 -1,587 Descending Seattle Center
09:41PM 46.3272 -116.6219 331° Northwest 229 264 5,700 -787 Descending Seattle Center
09:42PM 46.3389 -116.6925 283° West 207 238 5,500 -197 Descending Seattle Center